Terminal Aerodrome Forecast
Issued by NWS

Home | Current Version | Previous Version | Text Only | Print | Product List | Glossary On
Versions: 1 2 3 4 5 6 7 8 9 10 11 12 13 14 15 16
000
FTUS46 KLOX 042339
TAFPMD
TAF
KPMD 042339Z 0500/0524 24020G27KT P6SM SCT200
     FM050300 24013KT P6SM SCT200
     FM051000 24008KT P6SM SCT200
     FM051900 24017G25KT P6SM SCT200=

USA.gov is the U.S. government's official web portal to all federal, state and local government web resources and services.